createdAt,value
2022-11-23T00:00:46.385Z,5.40
2022-11-23T00:03:15.802Z,5.13
2022-11-23T00:05:44.981Z,5.87
2022-11-23T00:08:12.623Z,5.60
2022-11-23T00:10:40.270Z,5.60
2022-11-23T00:13:07.893Z,5.22
2022-11-23T00:15:35.956Z,5.32
2022-11-23T00:18:03.594Z,5.28
2022-11-23T00:20:31.208Z,4.78
2022-11-23T00:23:00.214Z,4.95
2022-11-23T00:25:28.127Z,4.88
2022-11-23T00:27:56.244Z,3.88
2022-11-23T00:30:24.183Z,3.40
2022-11-23T00:32:51.877Z,2.63
2022-11-23T00:35:20.551Z,2.50
2022-11-23T00:37:49.281Z,2.60
2022-11-23T00:40:18.966Z,3.10
2022-11-23T00:42:46.589Z,2.90
2022-11-23T00:45:14.515Z,2.78
2022-11-23T00:47:42.296Z,3.05
2022-11-23T00:50:10.727Z,3.70
2022-11-23T00:52:38.328Z,3.90
2022-11-23T00:55:06.726Z,3.88
2022-11-23T00:57:35.889Z,3.90
2022-11-23T01:00:03.735Z,3.65
2022-11-23T01:02:31.367Z,3.88
2022-11-23T01:04:59.043Z,2.97
2022-11-23T01:07:26.685Z,3.28
2022-11-23T01:09:54.349Z,3.38
2022-11-23T01:12:21.954Z,4.07
2022-11-23T01:14:51.289Z,4.82
2022-11-23T01:17:19.100Z,4.93
2022-11-23T01:19:46.799Z,5.20
2022-11-23T01:22:14.645Z,5.07
2022-11-23T01:24:42.304Z,4.82
2022-11-23T01:27:10.025Z,5.22
2022-11-23T01:29:38.739Z,5.18
2022-11-23T01:32:07.988Z,4.22
2022-11-23T01:34:35.627Z,5.10
2022-11-23T01:37:04.325Z,3.92
2022-11-23T01:39:32.317Z,3.05
2022-11-23T01:42:00.081Z,4.68
2022-11-23T01:44:30.319Z,3.42
2022-11-23T01:46:59.720Z,4.90
2022-11-23T01:49:33.031Z,4.68
2022-11-23T01:52:05.063Z,4.72
2022-11-23T01:54:37.685Z,4.53
2022-11-23T01:57:10.052Z,4.35
2022-11-23T01:59:38.047Z,4.65
2022-11-23T02:02:06.484Z,4.43
2022-11-23T02:04:40.291Z,4.38
2022-11-23T02:07:08.626Z,4.53
2022-11-23T02:09:37.529Z,4.40
2022-11-23T02:12:12.671Z,4.53
2022-11-23T02:14:41.390Z,4.82
2022-11-23T02:17:10.063Z,4.18
2022-11-23T02:19:47.639Z,4.65
2022-11-23T02:22:23.694Z,4.45
2022-11-23T02:24:56.209Z,4.40
2022-11-23T02:27:26.745Z,4.10
2022-11-23T02:29:56.964Z,4.50
2022-11-23T02:32:25.871Z,4.15
2022-11-23T02:34:53.525Z,4.13
2022-11-23T02:37:21.358Z,4.00
2022-11-23T02:39:52.802Z,3.70
2022-11-23T02:42:20.640Z,3.80
2022-11-23T02:45:01.532Z,4.05
2022-11-23T02:47:29.190Z,3.90
2022-11-23T02:49:56.840Z,3.97
2022-11-23T02:52:24.580Z,3.90
2022-11-23T02:54:52.242Z,3.80
2022-11-23T02:57:19.933Z,3.90
2022-11-23T02:59:47.573Z,4.10
2022-11-23T03:02:16.704Z,3.55
2022-11-23T03:04:44.656Z,4.10
2022-11-23T03:07:12.751Z,3.80
2022-11-23T03:09:40.414Z,3.70
2022-11-23T03:12:08.406Z,3.50
2022-11-23T03:14:36.028Z,3.40
2022-11-23T03:17:03.943Z,3.45
2022-11-23T03:19:33.199Z,3.20
2022-11-23T03:22:00.973Z,3.55
2022-11-23T03:24:28.602Z,3.70
2022-11-23T03:26:56.727Z,3.70
2022-11-23T03:29:26.418Z,3.80
2022-11-23T03:31:54.360Z,3.55
2022-11-23T03:34:22.543Z,3.63
2022-11-23T03:36:51.536Z,3.80
2022-11-23T03:39:19.605Z,3.50
2022-11-23T03:41:47.503Z,4.20
2022-11-23T03:44:15.249Z,4.53
2022-11-23T03:46:42.852Z,3.97
2022-11-23T03:49:10.529Z,3.58
2022-11-23T03:51:38.185Z,3.90
2022-11-23T03:54:07.613Z,4.00
2022-11-23T03:56:35.481Z,3.38
2022-11-23T03:59:03.319Z,3.42
2022-11-23T04:01:31.424Z,3.47
2022-11-23T04:04:00.457Z,3.78
2022-11-23T04:06:28.132Z,3.20
2022-11-23T04:09:01.562Z,3.08
2022-11-23T04:11:31.147Z,3.60
2022-11-23T04:13:59.240Z,3.72
2022-11-23T04:16:26.873Z,3.53
2022-11-23T04:18:54.491Z,3.40
2022-11-23T04:21:22.174Z,3.30
2022-11-23T04:23:51.091Z,3.17
2022-11-23T04:26:18.768Z,2.88
2022-11-23T04:28:47.763Z,2.97
2022-11-23T04:31:15.664Z,3.00
2022-11-23T04:33:43.612Z,2.85
2022-11-23T04:36:11.349Z,2.92
2022-11-23T04:38:39.041Z,3.10
2022-11-23T04:41:06.790Z,3.20
2022-11-23T04:43:34.456Z,3.20
2022-11-23T04:46:03.629Z,3.20
2022-11-23T04:48:31.925Z,3.20
2022-11-23T04:51:00.179Z,2.45
2022-11-23T04:53:27.871Z,3.10
2022-11-23T04:55:55.514Z,4.13
2022-11-23T04:58:23.314Z,3.30
2022-11-23T05:00:50.983Z,3.88
2022-11-23T05:03:20.263Z,4.60
2022-11-23T05:05:47.923Z,4.43
2022-11-23T05:08:16.631Z,4.35
2022-11-23T05:10:44.830Z,3.67
2022-11-23T05:13:12.828Z,3.35
2022-11-23T05:15:40.511Z,3.40
2022-11-23T05:18:10.529Z,3.17
2022-11-23T05:20:40.169Z,3.15
2022-11-23T05:23:08.083Z,2.83
2022-11-23T05:25:36.829Z,3.65
2022-11-23T05:28:30.067Z,3.17
2022-11-23T05:30:52.464Z,3.28
2022-11-23T05:33:21.292Z,3.10
2022-11-23T05:35:50.252Z,3.85
2022-11-23T05:38:18.702Z,3.58
2022-11-23T05:40:46.782Z,3.80
2022-11-23T05:43:14.656Z,3.30
2022-11-23T05:45:42.401Z,3.42
2022-11-23T05:48:10.979Z,3.50
2022-11-23T05:50:38.736Z,3.47
2022-11-23T05:53:07.760Z,3.38
2022-11-23T05:55:36.472Z,3.50
2022-11-23T05:58:04.159Z,3.38
2022-11-23T06:00:32.823Z,3.38
2022-11-23T06:03:01.706Z,3.70
2022-11-23T06:05:30.049Z,3.30
2022-11-23T06:07:58.472Z,3.38
2022-11-23T06:10:27.694Z,3.25
2022-11-23T06:12:55.402Z,3.42
2022-11-23T06:15:23.129Z,3.17
2022-11-23T06:17:50.705Z,3.42
2022-11-23T06:20:18.458Z,3.13
2022-11-23T06:22:52.293Z,3.20
2022-11-23T06:25:20.040Z,3.05
2022-11-23T06:27:57.956Z,3.03
2022-11-23T06:30:26.691Z,3.70
2022-11-23T06:32:54.508Z,3.50
2022-11-23T06:35:22.143Z,5.78
2022-11-23T06:37:50.580Z,5.80
2022-11-23T06:40:18.640Z,5.47
2022-11-23T06:42:46.664Z,4.57
2022-11-23T06:45:16.260Z,4.55
2022-11-23T06:47:44.376Z,5.68
2022-11-23T06:50:14.337Z,4.88
2022-11-23T06:52:42.023Z,4.10
2022-11-23T06:55:09.944Z,4.00
2022-11-23T06:57:37.824Z,4.20
2022-11-23T07:00:06.836Z,4.20
2022-11-23T07:02:36.005Z,4.28
2022-11-23T07:05:03.714Z,4.95
2022-11-23T07:07:31.423Z,5.18
2022-11-23T07:10:01.636Z,5.28
2022-11-23T07:12:33.273Z,6.07
2022-11-23T07:15:00.962Z,6.10
2022-11-23T07:17:28.601Z,5.28
2022-11-23T07:19:57.783Z,5.20
2022-11-23T07:22:25.445Z,5.75
2022-11-23T07:24:53.036Z,6.30
2022-11-23T07:27:20.785Z,5.60
2022-11-23T07:29:48.463Z,6.88
2022-11-23T07:32:16.147Z,6.18
2022-11-23T07:34:43.939Z,6.13
2022-11-23T07:37:12.929Z,6.18
2022-11-23T07:39:56.849Z,3.92
2022-11-23T07:42:36.036Z,4.57
2022-11-23T07:45:10.383Z,4.55
2022-11-23T07:47:38.376Z,3.97
2022-11-23T07:50:07.798Z,4.30
2022-11-23T07:52:37.086Z,3.90
2022-11-23T07:55:05.544Z,3.53
2022-11-23T07:57:33.219Z,4.20
2022-11-23T08:00:00.837Z,4.30
2022-11-23T08:02:28.568Z,5.00
2022-11-23T08:04:56.547Z,3.40
2022-11-23T08:07:24.280Z,3.47
2022-11-23T08:09:53.289Z,3.20
2022-11-23T08:12:21.572Z,4.55
2022-11-23T08:14:49.199Z,4.93
2022-11-23T08:17:17.094Z,4.20
2022-11-23T08:19:44.937Z,7.97
2022-11-23T08:22:15.748Z,7.75
2022-11-23T08:24:43.797Z,5.45
2022-11-23T08:27:12.801Z,3.63
2022-11-23T08:29:40.534Z,3.60
2022-11-23T08:32:09.252Z,3.00
2022-11-23T08:34:37.035Z,3.07
2022-11-23T08:37:04.694Z,2.85
2022-11-23T08:39:32.462Z,2.55
2022-11-23T08:42:00.343Z,2.80
2022-11-23T08:44:30.102Z,3.00
2022-11-23T08:46:58.124Z,2.97
2022-11-23T08:49:26.107Z,3.27
2022-11-23T08:51:54.480Z,3.20
2022-11-23T08:54:24.261Z,3.45
2022-11-23T08:56:52.197Z,2.92
2022-11-23T08:59:22.698Z,2.67
2022-11-23T09:01:51.711Z,3.47
2022-11-23T09:04:20.942Z,3.03
2022-11-23T09:06:48.803Z,3.17
2022-11-23T09:09:16.411Z,3.22
2022-11-23T09:11:44.053Z,3.10
2022-11-23T09:14:11.767Z,3.80
2022-11-23T09:16:39.340Z,4.53
2022-11-23T09:19:08.356Z,4.63
2022-11-23T09:21:39.302Z,3.95
2022-11-23T09:24:07.777Z,3.58
2022-11-23T09:26:37.542Z,3.70
2022-11-23T09:29:05.606Z,3.88
2022-11-23T09:31:33.374Z,3.80
2022-11-23T09:34:01.201Z,3.70
2022-11-23T09:36:30.190Z,3.80
2022-11-23T09:38:58.290Z,3.10
2022-11-23T09:41:50.269Z,3.20
2022-11-23T09:44:22.698Z,3.20
2022-11-23T09:47:03.927Z,2.78
2022-11-23T09:49:41.143Z,4.40
2022-11-23T09:52:17.261Z,5.63
2022-11-23T09:54:47.384Z,6.22
2022-11-23T09:57:19.729Z,4.47
2022-11-23T09:59:54.002Z,3.80
2022-11-23T10:02:24.233Z,4.63
2022-11-23T10:04:53.530Z,3.90
2022-11-23T10:07:38.423Z,2.90
2022-11-23T10:10:14.523Z,2.60
2022-11-23T10:12:52.836Z,2.40
2022-11-23T10:15:25.611Z,2.25
2022-11-23T10:18:29.771Z,2.38
2022-11-23T10:21:04.991Z,2.13
2022-11-23T10:23:48.117Z,2.50
2022-11-23T10:26:19.634Z,2.13
2022-11-23T10:28:48.764Z,2.00
2022-11-23T10:31:18.790Z,2.00
2022-11-23T10:33:56.604Z,1.88
2022-11-23T10:36:24.378Z,1.80
2022-11-23T10:38:58.652Z,1.90
2022-11-23T10:41:26.689Z,1.90
2022-11-23T10:44:05.306Z,1.77
2022-11-23T10:46:40.032Z,1.60
2022-11-23T10:49:19.425Z,1.80
2022-11-23T10:51:51.974Z,1.77
2022-11-23T10:54:24.935Z,1.65
2022-11-23T10:56:54.627Z,1.60
2022-11-23T10:59:35.367Z,1.55
2022-11-23T11:02:15.936Z,1.80
2022-11-23T11:04:44.021Z,1.60
2022-11-23T11:07:20.538Z,1.70
2022-11-23T11:09:52.584Z,1.70
2022-11-23T11:12:20.288Z,1.60
2022-11-23T11:15:16.652Z,1.50
2022-11-23T11:17:44.371Z,1.60
2022-11-23T11:20:38.087Z,1.50
2022-11-23T11:23:18.640Z,1.70
2022-11-23T11:25:48.980Z,2.00
2022-11-23T11:28:25.907Z,1.88
2022-11-23T11:31:09.247Z,1.67
2022-11-23T11:33:44.168Z,1.48
2022-11-23T11:36:17.322Z,1.50
2022-11-23T11:39:15.111Z,1.65
2022-11-23T11:41:40.680Z,1.73
2022-11-23T11:44:14.876Z,1.70
2022-11-23T11:46:48.475Z,1.50
2022-11-23T11:49:20.467Z,1.48
2022-11-23T11:51:51.465Z,1.45
2022-11-23T11:54:25.908Z,1.60
2022-11-23T11:56:58.871Z,1.42
2022-11-23T11:59:30.319Z,1.73
2022-11-23T12:02:08.774Z,1.60
2022-11-23T12:04:41.285Z,1.80
2022-11-23T12:07:15.243Z,1.63
2022-11-23T12:09:48.105Z,1.70
2022-11-23T12:12:21.927Z,1.58
2022-11-23T12:14:53.012Z,1.70
2022-11-23T12:17:41.553Z,1.38
2022-11-23T12:20:18.245Z,1.77
2022-11-23T12:23:00.539Z,1.80
2022-11-23T12:25:36.605Z,1.60
2022-11-23T12:28:28.423Z,1.70
2022-11-23T12:31:09.170Z,1.70
2022-11-23T12:33:54.418Z,2.03
2022-11-23T12:36:45.644Z,1.70
2022-11-23T12:39:33.457Z,1.52
2022-11-23T12:42:09.595Z,1.70
2022-11-23T12:44:55.593Z,1.53
2022-11-23T12:47:36.104Z,1.50
2022-11-23T12:50:20.720Z,1.67
2022-11-23T12:53:00.772Z,1.42
2022-11-23T12:55:38.993Z,1.50
2022-11-23T12:58:14.000Z,1.80
2022-11-23T13:00:48.743Z,1.90
2022-11-23T13:03:55.372Z,1.20
2022-11-23T13:07:12.698Z,1.40
2022-11-23T13:09:56.390Z,1.63
2022-11-23T13:12:40.474Z,1.35
2022-11-23T13:15:27.197Z,1.80
2022-11-23T13:18:03.226Z,1.92
2022-11-23T13:20:51.313Z,1.40
2022-11-23T13:23:21.596Z,1.50
2022-11-23T13:26:21.724Z,1.60
2022-11-23T13:28:51.270Z,1.50
2022-11-23T13:31:25.304Z,1.70
2022-11-23T13:33:56.428Z,1.33
2022-11-23T13:37:16.589Z,2.08
2022-11-23T13:40:04.073Z,1.70
2022-11-23T13:42:34.774Z,1.30
2022-11-23T13:45:24.417Z,1.70
2022-11-23T13:51:07.774Z,1.60
2022-11-23T13:53:38.207Z,1.73
2022-11-23T13:56:32.106Z,1.60
2022-11-23T13:59:20.766Z,1.45
2022-11-23T14:02:26.546Z,1.80
2022-11-23T14:05:10.459Z,1.35
2022-11-23T14:07:46.343Z,1.30
2022-11-23T14:10:21.999Z,1.33
2022-11-23T14:12:55.308Z,1.42
2022-11-23T14:15:25.897Z,1.42
2022-11-23T14:18:14.147Z,1.67
2022-11-23T14:20:53.481Z,1.40
2022-11-23T14:23:59.135Z,1.40
2022-11-23T14:26:35.584Z,1.40
2022-11-23T14:29:22.456Z,1.40
2022-11-23T14:32:09.853Z,1.33
2022-11-23T14:34:45.368Z,1.40
2022-11-23T14:37:25.088Z,1.40
2022-11-23T14:40:07.703Z,0.95
2022-11-23T14:42:42.683Z,1.25
2022-11-23T14:45:15.564Z,1.50
2022-11-23T14:47:43.667Z,1.77
2022-11-23T14:50:26.420Z,1.90
2022-11-23T14:52:56.853Z,2.10
2022-11-23T14:55:28.690Z,3.00
2022-11-23T14:58:01.086Z,3.65
2022-11-23T15:00:32.611Z,3.40
2022-11-23T15:03:26.990Z,2.10
2022-11-23T15:05:58.052Z,2.00
2022-11-23T15:08:31.877Z,2.25
2022-11-23T15:11:06.626Z,1.90
2022-11-23T15:13:44.211Z,1.98
2022-11-23T15:16:14.673Z,2.03
2022-11-23T15:18:43.146Z,2.20
2022-11-23T15:21:25.337Z,2.30
2022-11-23T15:23:57.014Z,2.90
2022-11-23T15:26:47.529Z,2.45
2022-11-23T15:29:37.650Z,2.45
2022-11-23T15:32:32.488Z,1.70
2022-11-23T15:35:04.881Z,2.57
2022-11-23T15:37:34.427Z,2.30
2022-11-23T15:40:02.289Z,2.33
2022-11-23T15:42:31.652Z,2.58
2022-11-23T15:45:00.479Z,2.75
2022-11-23T15:47:31.160Z,2.05
2022-11-23T15:50:02.361Z,2.28
2022-11-23T15:52:36.156Z,2.45
2022-11-23T15:55:09.818Z,2.33
2022-11-23T15:57:40.404Z,2.00
2022-11-23T16:00:10.747Z,2.45
2022-11-23T16:02:38.756Z,2.78
2022-11-23T16:05:15.737Z,2.42
2022-11-23T16:07:54.817Z,2.20
2022-11-23T16:10:25.899Z,2.00
2022-11-23T16:12:56.975Z,1.95
2022-11-23T16:15:41.406Z,1.65
2022-11-23T16:18:21.711Z,1.80
2022-11-23T16:20:52.161Z,2.15
2022-11-23T16:23:24.611Z,2.97
2022-11-23T16:25:58.528Z,1.98
2022-11-23T16:28:31.787Z,1.70
2022-11-23T16:31:00.436Z,1.60
2022-11-23T16:33:30.226Z,1.45
2022-11-23T16:35:57.985Z,1.60
2022-11-23T16:38:27.706Z,1.42
2022-11-23T16:40:56.273Z,1.20
2022-11-23T16:43:24.551Z,1.30
2022-11-23T16:45:55.469Z,1.30
2022-11-23T16:48:42.902Z,2.25
2022-11-23T16:51:14.251Z,2.08
2022-11-23T16:56:34.185Z,1.35
2022-11-23T16:59:01.982Z,1.45
2022-11-23T17:01:32.566Z,1.80
2022-11-23T17:04:01.001Z,1.23
2022-11-23T17:06:28.907Z,1.63
2022-11-23T17:09:06.249Z,1.70
2022-11-23T17:11:38.362Z,2.70
2022-11-23T17:14:07.106Z,4.27
2022-11-23T17:16:36.342Z,3.58
2022-11-23T17:19:04.064Z,2.03
2022-11-23T17:21:31.688Z,2.30
2022-11-23T17:23:59.468Z,2.83
2022-11-23T17:26:33.922Z,2.10
2022-11-23T17:29:03.433Z,2.15
2022-11-23T17:31:31.710Z,2.03
2022-11-23T17:34:00.673Z,3.90
2022-11-23T17:36:30.028Z,3.83
2022-11-23T17:38:57.842Z,4.40
2022-11-23T17:41:25.478Z,4.50
2022-11-23T17:43:54.355Z,6.80
2022-11-23T17:46:23.680Z,6.72
2022-11-23T17:48:54.827Z,10.60
2022-11-23T17:51:24.207Z,10.95
2022-11-23T17:53:52.146Z,9.20
2022-11-23T17:56:22.210Z,4.13
2022-11-23T17:58:52.225Z,6.00
2022-11-23T18:01:21.904Z,4.53
2022-11-23T18:03:49.714Z,5.88
2022-11-23T18:06:19.543Z,5.63
2022-11-23T18:08:49.530Z,6.10
2022-11-23T18:11:17.926Z,5.37
2022-11-23T18:13:47.059Z,4.78
2022-11-23T18:16:15.797Z,9.77
2022-11-23T18:18:43.555Z,8.55
2022-11-23T18:21:14.339Z,10.53
2022-11-23T18:23:42.359Z,9.00
2022-11-23T18:26:20.714Z,7.90
2022-11-23T18:28:49.064Z,7.43
2022-11-23T18:31:17.258Z,14.75
2022-11-23T18:33:45.766Z,11.93
2022-11-23T18:36:13.821Z,9.05
2022-11-23T18:38:42.231Z,9.18
2022-11-23T18:41:10.018Z,16.50
2022-11-23T18:43:39.340Z,6.60
2022-11-23T18:46:10.050Z,3.72
2022-11-23T18:48:38.471Z,5.15
2022-11-23T18:51:11.601Z,6.53
2022-11-23T18:53:39.304Z,8.93
2022-11-23T18:56:08.134Z,9.82
2022-11-23T18:58:36.136Z,6.70
2022-11-23T19:01:12.246Z,5.97
2022-11-23T19:03:41.745Z,5.30
2022-11-23T19:06:11.945Z,4.17
2022-11-23T19:08:40.314Z,3.50
2022-11-23T19:11:08.772Z,2.53
2022-11-23T19:13:37.910Z,2.10
2022-11-23T19:16:12.667Z,2.90
2022-11-23T19:18:40.581Z,3.15
2022-11-23T19:21:16.330Z,10.70
2022-11-23T19:23:44.963Z,4.90
2022-11-23T19:26:12.909Z,3.70
2022-11-23T19:28:44.614Z,2.53
2022-11-23T19:31:16.169Z,4.68
2022-11-23T19:33:44.460Z,6.10
2022-11-23T19:36:15.090Z,7.40
2022-11-23T19:38:44.997Z,2.00
2022-11-23T19:41:13.293Z,5.63
2022-11-23T19:43:41.172Z,5.00
2022-11-23T19:46:12.126Z,6.45
2022-11-23T19:48:42.226Z,5.13
2022-11-23T19:51:13.092Z,12.32
2022-11-23T19:53:42.758Z,15.40
2022-11-23T19:56:14.098Z,4.25
2022-11-23T19:58:42.703Z,2.20
2022-11-23T20:01:13.020Z,3.72
2022-11-23T20:03:43.788Z,3.37
2022-11-23T20:06:15.521Z,2.20
2022-11-23T20:08:44.164Z,2.55
2022-11-23T20:11:14.228Z,3.78
2022-11-23T20:13:42.630Z,2.50
2022-11-23T20:16:13.486Z,2.10
2022-11-23T20:18:43.496Z,2.20
2022-11-23T20:21:12.940Z,2.83
2022-11-23T20:23:41.257Z,2.35
2022-11-23T20:26:11.092Z,3.65
2022-11-23T20:28:39.168Z,2.40
2022-11-23T20:31:08.131Z,2.47
2022-11-23T20:33:36.081Z,3.03
2022-11-23T20:36:15.241Z,3.33
2022-11-23T20:38:43.934Z,6.25
2022-11-23T20:41:13.792Z,2.75
2022-11-23T20:43:42.005Z,4.82
2022-11-23T20:46:09.997Z,3.25
2022-11-23T20:48:39.436Z,2.92
2022-11-23T20:51:10.675Z,3.63
2022-11-23T20:53:40.498Z,3.50
2022-11-23T20:56:10.757Z,3.10
2022-11-23T20:58:39.141Z,3.67
2022-11-23T21:01:08.421Z,3.40
2022-11-23T21:03:37.069Z,2.63
2022-11-23T21:06:06.146Z,2.90
2022-11-23T21:08:35.139Z,3.08
2022-11-23T21:11:41.188Z,2.90
2022-11-23T21:14:17.605Z,2.90
2022-11-23T21:16:52.654Z,3.20
2022-11-23T21:19:22.137Z,3.20
2022-11-23T21:21:51.447Z,2.90
2022-11-23T21:24:19.560Z,3.03
2022-11-23T21:26:48.956Z,4.00
2022-11-23T21:29:16.928Z,3.42
2022-11-23T21:31:46.743Z,5.00
2022-11-23T21:34:19.210Z,6.38
2022-11-23T21:36:47.430Z,6.00
2022-11-23T21:39:15.867Z,5.70
2022-11-23T21:41:44.331Z,8.35
2022-11-23T21:44:13.527Z,5.55
2022-11-23T21:46:42.144Z,8.10
2022-11-23T21:49:10.516Z,6.47
2022-11-23T21:51:39.312Z,6.60
2022-11-23T21:54:09.898Z,4.43
2022-11-23T21:56:37.571Z,4.78
2022-11-23T21:59:05.266Z,3.83
2022-11-23T22:01:36.162Z,5.93
2022-11-23T22:04:05.825Z,4.57
2022-11-23T22:06:33.616Z,3.97
2022-11-23T22:09:01.665Z,6.07
2022-11-23T22:11:31.387Z,4.95
2022-11-23T22:14:00.962Z,4.53
2022-11-23T22:16:30.126Z,3.80
2022-11-23T22:19:00.621Z,5.68
2022-11-23T22:21:30.577Z,5.13
2022-11-23T22:23:59.995Z,6.63
2022-11-23T22:26:28.845Z,4.20
2022-11-23T22:28:57.293Z,5.70
2022-11-23T22:31:27.651Z,4.82
2022-11-23T22:33:55.423Z,4.05
2022-11-23T22:36:25.660Z,4.82
2022-11-23T22:39:01.338Z,3.90
2022-11-23T22:41:30.641Z,3.55
2022-11-23T22:43:59.775Z,4.10
2022-11-23T22:46:28.197Z,3.22
2022-11-23T22:48:59.121Z,4.70
2022-11-23T22:51:29.701Z,4.00
2022-11-23T22:53:58.714Z,3.67
2022-11-23T22:56:27.664Z,4.38
2022-11-23T22:58:55.541Z,3.90
2022-11-23T23:01:26.340Z,3.25
2022-11-23T23:03:55.401Z,3.28
2022-11-23T23:06:24.846Z,3.38
2022-11-23T23:08:56.758Z,3.78
2022-11-23T23:11:25.203Z,3.25
2022-11-23T23:13:53.564Z,3.10
2022-11-23T23:16:21.659Z,3.25
2022-11-23T23:18:50.171Z,3.15
2022-11-23T23:21:19.908Z,3.17
2022-11-23T23:23:49.297Z,4.03
2022-11-23T23:26:20.488Z,3.08
2022-11-23T23:28:48.808Z,3.17
2022-11-23T23:31:18.072Z,3.00
2022-11-23T23:33:46.555Z,3.20
2022-11-23T23:36:16.229Z,2.75
2022-11-23T23:38:44.598Z,3.23
2022-11-23T23:41:13.417Z,2.80
2022-11-23T23:43:43.441Z,3.10
2022-11-23T23:46:13.699Z,3.10
2022-11-23T23:48:42.241Z,3.20
2022-11-23T23:51:11.566Z,3.20
2022-11-23T23:53:40.108Z,2.90
2022-11-23T23:56:12.647Z,2.83
2022-11-23T23:58:42.436Z,3.00
